createdAt,value
2019-01-16T00:02:14.621Z,10.97
2019-01-16T00:04:53.173Z,10.03
2019-01-16T00:07:15.125Z,9.90
2019-01-16T00:09:37.729Z,11.00
2019-01-16T00:12:13.353Z,9.50
2019-01-16T00:14:35.863Z,10.40
2019-01-16T00:16:52.468Z,9.80
2019-01-16T00:19:15.065Z,10.17
2019-01-16T00:21:37.346Z,9.50
2019-01-16T00:24:00.940Z,9.97
2019-01-16T00:26:36.702Z,10.43
2019-01-16T00:29:06.293Z,9.80
2019-01-16T00:31:32.411Z,10.80
2019-01-16T00:33:54.540Z,10.80
2019-01-16T00:36:18.665Z,10.77
2019-01-16T00:38:48.600Z,10.50
2019-01-16T00:41:07.918Z,10.00
2019-01-16T00:43:47.227Z,10.37
2019-01-16T00:46:11.160Z,10.93
2019-01-16T00:48:37.836Z,10.63
2019-01-16T00:51:02.229Z,10.87
2019-01-16T00:53:14.175Z,10.40
2019-01-16T00:55:40.603Z,10.60
2019-01-16T00:58:19.365Z,9.33
2019-01-16T01:00:43.062Z,10.30
2019-01-16T01:03:16.484Z,9.80
2019-01-16T01:05:45.962Z,10.10
2019-01-16T01:08:09.916Z,8.97
2019-01-16T01:10:45.854Z,8.40
2019-01-16T01:13:09.394Z,8.97
2019-01-16T01:15:39.020Z,8.73
2019-01-16T01:18:03.200Z,8.13
2019-01-16T01:20:42.272Z,8.30
2019-01-16T01:23:08.695Z,9.30
2019-01-16T01:25:40.028Z,8.20
2019-01-16T01:28:09.952Z,8.47
2019-01-16T01:30:32.834Z,8.70
2019-01-16T01:33:11.379Z,8.43
2019-01-16T01:35:32.675Z,8.13
2019-01-16T01:37:55.541Z,9.13
2019-01-16T01:40:18.222Z,8.90
2019-01-16T01:43:00.112Z,8.40
2019-01-16T01:45:24.796Z,8.23
2019-01-16T01:47:45.366Z,8.57
2019-01-16T01:50:10.653Z,8.80
2019-01-16T01:52:34.753Z,7.57
2019-01-16T01:55:01.689Z,8.10
2019-01-16T01:57:25.769Z,8.77
2019-01-16T01:59:49.522Z,9.33
2019-01-16T02:02:30.729Z,9.07
2019-01-16T02:05:03.811Z,8.10
2019-01-16T02:07:34.674Z,8.40
2019-01-16T02:10:15.784Z,9.10
2019-01-16T02:12:39.511Z,8.43
2019-01-16T02:15:02.350Z,8.80
2019-01-16T02:17:24.661Z,8.20
2019-01-16T02:19:40.509Z,8.60
2019-01-16T02:22:05.680Z,7.90
2019-01-16T02:24:24.049Z,8.00
2019-01-16T02:26:43.410Z,7.97
2019-01-16T02:29:05.682Z,7.70
2019-01-16T02:31:36.019Z,7.03
2019-01-16T02:33:58.231Z,8.10
2019-01-16T02:36:15.115Z,7.90
2019-01-16T02:38:47.195Z,7.90
2019-01-16T02:41:07.585Z,8.13
2019-01-16T02:43:30.537Z,8.27
2019-01-16T02:46:03.124Z,7.43
2019-01-16T02:48:38.554Z,7.87
2019-01-16T02:50:55.450Z,7.73
2019-01-16T02:53:17.889Z,7.20
2019-01-16T02:55:35.294Z,7.67
2019-01-16T02:58:16.946Z,7.70
2019-01-16T03:00:40.863Z,7.03
2019-01-16T03:03:02.822Z,7.67
2019-01-16T03:05:22.045Z,6.80
2019-01-16T03:07:42.478Z,7.30
2019-01-16T03:10:08.957Z,8.60
2019-01-16T03:12:44.925Z,6.93
2019-01-16T03:15:21.071Z,7.70
2019-01-16T03:17:33.855Z,7.70
2019-01-16T03:20:00.621Z,7.67
2019-01-16T03:22:33.598Z,7.13
2019-01-16T03:24:51.759Z,7.23
2019-01-16T03:27:24.478Z,7.10
2019-01-16T03:30:00.328Z,7.57
2019-01-16T03:32:28.537Z,7.17
2019-01-16T03:34:55.437Z,8.20
2019-01-16T03:37:22.140Z,8.10
2019-01-16T03:39:44.262Z,8.23
2019-01-16T03:42:12.873Z,7.37
2019-01-16T03:44:42.518Z,8.00
2019-01-16T03:47:24.259Z,7.50
2019-01-16T03:49:38.607Z,7.00
2019-01-16T03:52:02.677Z,7.77
2019-01-16T03:54:24.860Z,8.00
2019-01-16T03:57:08.595Z,7.77
2019-01-16T03:59:31.682Z,8.23
2019-01-16T04:01:58.422Z,7.73
2019-01-16T04:04:24.883Z,8.30
2019-01-16T04:06:47.601Z,7.80
2019-01-16T04:09:09.828Z,7.10
2019-01-16T04:11:32.200Z,7.13
2019-01-16T04:14:08.447Z,8.10
2019-01-16T04:16:34.838Z,7.17
2019-01-16T04:19:21.546Z,7.77
2019-01-16T04:21:34.928Z,7.40
2019-01-16T04:23:59.839Z,7.40
2019-01-16T04:26:18.239Z,7.40
2019-01-16T04:28:41.352Z,7.23
2019-01-16T04:31:03.721Z,7.93
2019-01-16T04:33:26.319Z,7.50
2019-01-16T04:35:53.093Z,7.63
2019-01-16T04:38:19.911Z,7.83
2019-01-16T04:40:43.593Z,6.03
2019-01-16T04:43:19.505Z,6.83
2019-01-16T04:45:52.121Z,7.20
2019-01-16T04:48:23.361Z,6.60
2019-01-16T04:50:45.803Z,6.87
2019-01-16T04:53:23.278Z,6.67
2019-01-16T04:55:56.307Z,7.03
2019-01-16T04:58:29.119Z,7.13
2019-01-16T05:00:51.347Z,6.90
2019-01-16T05:03:13.420Z,6.03
2019-01-16T05:05:37.361Z,5.60
2019-01-16T05:08:03.918Z,5.87
2019-01-16T05:10:26.731Z,6.40
2019-01-16T05:12:59.640Z,5.90
2019-01-16T05:15:29.483Z,6.13
2019-01-16T05:17:53.348Z,6.00
2019-01-16T05:20:29.343Z,5.87
2019-01-16T05:22:51.338Z,6.00
2019-01-16T05:25:15.848Z,6.10
2019-01-16T05:27:48.616Z,5.73
2019-01-16T05:30:12.959Z,6.03
2019-01-16T05:32:42.630Z,5.17
2019-01-16T05:35:04.968Z,5.70
2019-01-16T05:37:32.103Z,5.40
2019-01-16T05:40:04.898Z,4.80
2019-01-16T05:42:27.141Z,5.20
2019-01-16T05:44:56.848Z,5.60
2019-01-16T05:47:32.274Z,5.37
2019-01-16T05:49:46.934Z,4.90
2019-01-16T05:52:05.373Z,4.97
2019-01-16T05:54:29.271Z,4.70
2019-01-16T05:57:01.751Z,5.00
2019-01-16T05:59:23.642Z,4.60
2019-01-16T06:02:02.253Z,4.60
2019-01-16T06:04:28.647Z,4.20
2019-01-16T06:07:07.749Z,4.10
2019-01-16T06:09:29.717Z,4.40
2019-01-16T06:11:50.192Z,5.00
2019-01-16T06:14:41.938Z,4.40
2019-01-16T06:17:25.170Z,4.07
2019-01-16T06:19:54.016Z,4.10
2019-01-16T06:22:20.886Z,3.87
2019-01-16T06:24:43.682Z,4.30
2019-01-16T06:27:13.424Z,4.23
2019-01-16T06:29:35.702Z,4.10
2019-01-16T06:32:16.255Z,3.80
2019-01-16T06:34:38.750Z,3.23
2019-01-16T06:36:53.766Z,3.43
2019-01-16T06:39:16.089Z,4.23
2019-01-16T06:41:30.649Z,3.80
2019-01-16T06:44:00.642Z,3.70
2019-01-16T06:46:33.945Z,3.73
2019-01-16T06:48:55.535Z,3.40
2019-01-16T06:51:16.402Z,4.13
2019-01-16T06:53:38.700Z,3.47
2019-01-16T06:56:13.171Z,3.90
2019-01-16T06:58:52.335Z,3.50
2019-01-16T07:01:14.770Z,3.50
2019-01-16T07:03:38.740Z,3.70
2019-01-16T07:06:14.245Z,3.50
2019-01-16T07:08:49.773Z,3.50
2019-01-16T07:11:12.359Z,3.97
2019-01-16T07:13:48.470Z,3.43
2019-01-16T07:16:13.004Z,3.57
2019-01-16T07:18:35.597Z,3.67
2019-01-16T07:20:49.389Z,3.30
2019-01-16T07:23:11.664Z,3.17
2019-01-16T07:25:38.076Z,3.37
2019-01-16T07:28:00.415Z,2.97
2019-01-16T07:30:28.575Z,2.73
2019-01-16T07:33:07.538Z,3.47
2019-01-16T07:35:29.865Z,3.00
2019-01-16T07:37:56.587Z,3.00
2019-01-16T07:40:23.362Z,3.20
2019-01-16T07:42:47.337Z,2.93
2019-01-16T07:45:09.609Z,3.07
2019-01-16T07:47:39.065Z,3.23
2019-01-16T07:50:17.435Z,3.00
2019-01-16T07:52:30.430Z,2.87
2019-01-16T07:57:43.670Z,3.13
2019-01-16T08:00:01.531Z,2.83
2019-01-16T08:02:28.575Z,3.17
2019-01-16T08:05:07.128Z,3.40
2019-01-16T08:07:39.886Z,3.00
2019-01-16T08:10:03.847Z,3.13
2019-01-16T08:12:33.242Z,3.03
2019-01-16T08:14:55.255Z,3.50
2019-01-16T08:17:15.570Z,3.03
2019-01-16T08:19:48.340Z,3.53
2019-01-16T08:22:10.386Z,3.37
2019-01-16T08:24:46.472Z,3.67
2019-01-16T08:27:07.806Z,3.83
2019-01-16T08:29:40.975Z,3.60
2019-01-16T08:32:04.654Z,3.67
2019-01-16T08:34:52.214Z,4.80
2019-01-16T08:37:14.229Z,4.43
2019-01-16T08:39:49.805Z,5.37
2019-01-16T08:42:11.767Z,4.53
2019-01-16T08:44:33.941Z,4.67
2019-01-16T08:47:03.788Z,5.30
2019-01-16T08:49:25.814Z,5.20
2019-01-16T08:52:04.653Z,5.23
2019-01-16T08:54:28.424Z,5.80
2019-01-16T08:57:01.298Z,5.17
2019-01-16T08:59:40.201Z,5.70
2019-01-16T09:02:13.041Z,6.70
2019-01-16T09:04:35.063Z,5.97
2019-01-16T09:07:04.799Z,6.60
2019-01-16T09:09:32.556Z,7.33
2019-01-16T09:12:11.193Z,7.10
2019-01-16T09:14:33.499Z,7.70
2019-01-16T09:16:59.985Z,8.03
2019-01-16T09:19:29.535Z,8.33
2019-01-16T09:21:53.168Z,8.80
2019-01-16T09:24:15.465Z,8.77
2019-01-16T09:26:37.746Z,8.57
2019-01-16T09:29:19.286Z,9.50
2019-01-16T09:31:34.831Z,9.40
2019-01-16T09:34:10.996Z,10.50
2019-01-16T09:36:35.252Z,10.20
2019-01-16T09:39:04.817Z,10.10
2019-01-16T09:41:24.796Z,9.57
2019-01-16T09:43:50.828Z,10.63
2019-01-16T09:46:08.528Z,9.57
2019-01-16T09:48:26.105Z,9.90
2019-01-16T09:50:37.995Z,10.03
2019-01-16T09:53:02.297Z,9.37
2019-01-16T09:55:26.503Z,9.07
2019-01-16T09:57:44.307Z,10.03
2019-01-16T10:00:20.267Z,8.83
2019-01-16T10:02:59.299Z,10.27
2019-01-16T10:05:23.560Z,13.87
2019-01-16T10:08:02.358Z,15.73
2019-01-16T10:10:26.747Z,10.87
2019-01-16T10:12:55.877Z,9.57
2019-01-16T10:15:28.587Z,8.63
2019-01-16T10:17:50.612Z,9.17
2019-01-16T10:20:20.073Z,10.30
2019-01-16T10:22:43.739Z,10.37
2019-01-16T10:25:10.522Z,10.50
2019-01-16T10:27:32.539Z,16.60
2019-01-16T10:29:58.868Z,10.07
2019-01-16T10:32:31.766Z,20.13
2019-01-16T10:34:50.783Z,16.67
2019-01-16T10:37:23.293Z,9.70
2019-01-16T10:39:45.690Z,7.90
2019-01-16T10:42:17.101Z,9.93
2019-01-16T10:44:45.019Z,7.17
2019-01-16T10:47:20.975Z,7.53
2019-01-16T10:49:37.240Z,7.97
2019-01-16T10:52:13.055Z,6.13
2019-01-16T10:54:34.998Z,7.53
2019-01-16T10:56:59.100Z,5.70
2019-01-16T10:59:15.738Z,6.50
2019-01-16T11:01:42.361Z,5.87
2019-01-16T11:04:04.657Z,5.83
2019-01-16T11:06:18.322Z,5.80
2019-01-16T11:08:37.427Z,5.83
2019-01-16T11:11:15.993Z,6.00
2019-01-16T11:13:31.651Z,5.47
2019-01-16T11:16:13.000Z,5.63
2019-01-16T11:18:35.447Z,5.50
2019-01-16T11:21:10.955Z,4.90
2019-01-16T11:23:28.711Z,5.47
2019-01-16T11:26:04.768Z,5.70
2019-01-16T11:28:28.370Z,5.10
2019-01-16T11:30:52.362Z,5.43
2019-01-16T11:33:19.598Z,4.83
2019-01-16T11:35:49.030Z,4.83
2019-01-16T11:38:18.993Z,6.30
2019-01-16T11:40:41.469Z,5.30
2019-01-16T11:43:05.308Z,5.90
2019-01-16T11:45:35.012Z,5.27
2019-01-16T11:48:07.753Z,5.63
2019-01-16T11:50:46.522Z,4.70
2019-01-16T11:53:23.064Z,5.63
2019-01-16T11:55:45.023Z,5.60
2019-01-16T11:58:20.728Z,6.37
2019-01-16T12:00:44.319Z,13.60
2019-01-16T12:03:02.647Z,6.20
2019-01-16T12:05:27.181Z,5.70
2019-01-16T12:08:00.299Z,6.00
2019-01-16T12:10:24.127Z,7.27
2019-01-16T12:12:50.471Z,8.73
2019-01-16T12:15:12.466Z,7.33
2019-01-16T12:17:36.366Z,6.10
2019-01-16T12:19:58.682Z,5.80
2019-01-16T12:22:21.014Z,5.10
2019-01-16T12:24:42.271Z,5.63
2019-01-16T12:27:05.887Z,6.13
2019-01-16T12:29:32.872Z,5.43
2019-01-16T12:32:03.231Z,6.50
2019-01-16T12:34:25.482Z,6.27
2019-01-16T12:37:03.308Z,6.07
2019-01-16T12:39:34.674Z,5.23
2019-01-16T12:42:01.284Z,5.40
2019-01-16T12:44:25.132Z,6.30
2019-01-16T12:46:47.484Z,8.20
2019-01-16T12:49:26.535Z,5.97
2019-01-16T12:51:50.169Z,6.03
2019-01-16T12:54:06.141Z,5.70
2019-01-16T12:56:32.514Z,5.20
2019-01-16T12:59:01.958Z,5.90
2019-01-16T13:01:31.917Z,7.43
2019-01-16T13:03:46.914Z,5.80
2019-01-16T13:06:20.776Z,5.80
2019-01-16T13:08:56.419Z,7.30
2019-01-16T13:11:38.311Z,5.17
2019-01-16T13:14:12.163Z,5.57
2019-01-16T13:16:34.545Z,6.13
2019-01-16T13:18:57.214Z,5.47
2019-01-16T13:21:20.608Z,6.07
2019-01-16T13:23:56.737Z,4.83
2019-01-16T13:26:23.890Z,5.20
2019-01-16T13:28:41.132Z,5.30
2019-01-16T13:31:07.585Z,4.80
2019-01-16T13:33:23.193Z,5.03
2019-01-16T13:35:48.265Z,5.20
2019-01-16T13:38:11.923Z,5.70
2019-01-16T13:40:47.966Z,5.43
2019-01-16T13:43:11.897Z,6.27
2019-01-16T13:45:47.643Z,4.93
2019-01-16T13:48:17.254Z,12.57
2019-01-16T13:50:32.228Z,5.80
2019-01-16T13:53:01.799Z,9.87
2019-01-16T13:55:27.126Z,12.60
2019-01-16T13:58:06.483Z,10.80
2019-01-16T14:00:30.686Z,6.40
2019-01-16T14:03:26.229Z,5.60
2019-01-16T14:05:53.622Z,5.00
2019-01-16T14:08:09.008Z,5.77
2019-01-16T14:10:30.270Z,5.40
2019-01-16T14:12:53.976Z,4.40
2019-01-16T14:15:33.165Z,5.93
2019-01-16T14:17:56.083Z,5.30
2019-01-16T14:20:18.339Z,5.20
2019-01-16T14:22:40.308Z,4.60
2019-01-16T14:25:00.821Z,4.07
2019-01-16T14:27:30.600Z,6.50
2019-01-16T14:29:53.074Z,4.50
2019-01-16T14:32:18.655Z,4.90
2019-01-16T14:34:51.293Z,4.40
2019-01-16T14:37:13.620Z,4.00
2019-01-16T14:39:36.545Z,4.43
2019-01-16T14:42:12.403Z,4.33
2019-01-16T14:45:03.912Z,4.30
2019-01-16T14:47:39.998Z,4.90
2019-01-16T14:50:07.087Z,4.20
2019-01-16T14:52:30.994Z,3.50
2019-01-16T14:54:49.519Z,3.83
2019-01-16T14:57:10.060Z,4.50
2019-01-16T14:59:39.762Z,3.83
2019-01-16T15:02:03.672Z,4.30
2019-01-16T15:04:42.936Z,4.43
2019-01-16T15:07:09.489Z,4.00
2019-01-16T15:09:32.818Z,4.07
2019-01-16T15:12:00.017Z,3.93
2019-01-16T15:14:24.210Z,4.20
2019-01-16T15:17:00.096Z,4.27
2019-01-16T15:19:23.112Z,4.80
2019-01-16T15:21:38.779Z,4.57
2019-01-16T15:24:05.449Z,8.20
2019-01-16T15:26:18.381Z,4.27
2019-01-16T15:28:41.685Z,3.87
2019-01-16T15:31:05.887Z,3.90
2019-01-16T15:33:40.273Z,4.00
2019-01-16T15:36:03.925Z,4.30
2019-01-16T15:38:22.157Z,4.53
2019-01-16T15:40:44.370Z,4.63
2019-01-16T15:43:03.415Z,4.47
2019-01-16T15:45:25.751Z,4.20
2019-01-16T15:47:48.325Z,4.10
2019-01-16T15:50:56.433Z,4.20
2019-01-16T15:53:22.980Z,4.53
2019-01-16T15:55:58.128Z,4.63
2019-01-16T15:58:20.007Z,3.73
2019-01-16T16:00:43.473Z,4.50
2019-01-16T16:03:16.223Z,4.20
2019-01-16T16:05:38.678Z,5.07
2019-01-16T16:08:12.707Z,3.97
2019-01-16T16:10:45.745Z,4.30
2019-01-16T16:13:08.286Z,3.93
2019-01-16T16:15:35.662Z,5.07
2019-01-16T16:18:05.313Z,4.43
2019-01-16T16:20:41.639Z,4.43
2019-01-16T16:23:03.737Z,4.27
2019-01-16T16:25:27.054Z,5.40
2019-01-16T16:27:55.793Z,4.80
2019-01-16T16:30:15.044Z,4.87
2019-01-16T16:32:37.076Z,4.47
2019-01-16T16:35:12.617Z,4.30
2019-01-16T16:37:45.048Z,4.17
2019-01-16T16:40:08.744Z,4.07
2019-01-16T16:42:27.073Z,4.13
2019-01-16T16:44:56.520Z,4.83
2019-01-16T16:47:22.953Z,4.60
2019-01-16T16:49:43.144Z,4.83
2019-01-16T16:52:05.584Z,4.90
2019-01-16T16:54:35.579Z,4.03
2019-01-16T16:57:02.416Z,4.67
2019-01-16T16:59:37.969Z,4.20
2019-01-16T17:02:08.973Z,4.60
2019-01-16T17:04:50.963Z,4.50
2019-01-16T17:07:13.103Z,4.70
2019-01-16T17:09:31.978Z,4.47
2019-01-16T17:12:02.917Z,4.57
2019-01-16T17:14:32.516Z,5.50
2019-01-16T17:16:56.180Z,6.00
2019-01-16T17:19:19.808Z,5.20
2019-01-16T17:21:46.989Z,5.70
2019-01-16T17:24:05.333Z,5.00
2019-01-16T17:26:47.023Z,4.80
2019-01-16T17:29:18.437Z,5.23
2019-01-16T17:31:41.794Z,5.40
2019-01-16T17:34:05.898Z,5.00
2019-01-16T17:36:36.334Z,4.43
2019-01-16T17:38:55.472Z,4.60
2019-01-16T17:41:19.213Z,4.53
2019-01-16T17:43:46.129Z,4.90
2019-01-16T17:46:23.033Z,4.60
2019-01-16T17:48:46.805Z,4.67
2019-01-16T17:51:10.522Z,4.60
2019-01-16T17:53:37.213Z,3.93
2019-01-16T17:56:12.769Z,4.90
2019-01-16T17:58:51.986Z,4.77
2019-01-16T18:01:33.237Z,4.93
2019-01-16T18:04:12.669Z,4.40
2019-01-16T18:06:35.449Z,4.73
2019-01-16T18:08:49.725Z,4.67
2019-01-16T18:11:12.688Z,4.97
2019-01-16T18:13:37.513Z,5.00
2019-01-16T18:16:16.448Z,4.57
2019-01-16T18:18:40.430Z,5.07
2019-01-16T18:21:12.104Z,5.77
2019-01-16T18:23:35.791Z,5.60
2019-01-16T18:25:58.610Z,6.50
2019-01-16T18:28:22.146Z,5.67
2019-01-16T18:30:44.741Z,5.80
2019-01-16T18:33:20.681Z,5.70
2019-01-16T18:35:38.153Z,6.20
2019-01-16T18:37:58.661Z,5.07
2019-01-16T18:40:28.525Z,5.80
2019-01-16T18:43:09.653Z,5.63
2019-01-16T18:45:32.785Z,6.30
2019-01-16T18:48:10.389Z,6.17
2019-01-16T18:50:43.303Z,6.00
2019-01-16T18:53:05.665Z,5.80
2019-01-16T18:55:31.223Z,6.10
2019-01-16T18:57:53.317Z,7.20
2019-01-16T19:00:30.161Z,6.40
2019-01-16T19:02:55.581Z,8.10
2019-01-16T19:05:23.306Z,6.57
2019-01-16T19:07:46.203Z,7.37
2019-01-16T19:10:08.001Z,8.50
2019-01-16T19:12:34.659Z,6.90
2019-01-16T19:14:59.767Z,7.30
2019-01-16T19:17:33.883Z,7.20
2019-01-16T19:19:56.977Z,6.20
2019-01-16T19:22:35.615Z,6.23
2019-01-16T19:24:53.303Z,6.50
2019-01-16T19:27:17.409Z,8.00
2019-01-16T19:29:41.766Z,6.10
2019-01-16T19:32:10.338Z,6.10
2019-01-16T19:34:37.310Z,7.03
2019-01-16T19:37:16.345Z,6.43
2019-01-16T19:39:49.553Z,7.77
2019-01-16T19:42:35.723Z,6.50
2019-01-16T19:44:59.497Z,7.23
2019-01-16T19:47:21.668Z,7.23
2019-01-16T19:50:06.588Z,7.83
2019-01-16T19:52:28.667Z,6.53
2019-01-16T19:54:51.008Z,6.30
2019-01-16T19:57:13.868Z,5.90
2019-01-16T19:59:37.936Z,6.97
2019-01-16T20:02:10.917Z,10.73
2019-01-16T20:04:40.543Z,8.57
2019-01-16T20:07:03.142Z,9.87
2019-01-16T20:09:25.133Z,8.37
2019-01-16T20:11:58.114Z,6.10
2019-01-16T20:14:31.929Z,7.20
2019-01-16T20:16:54.799Z,7.03
2019-01-16T20:19:18.783Z,13.40
2019-01-16T20:21:46.695Z,6.60
2019-01-16T20:24:13.330Z,9.87
2019-01-16T20:26:43.076Z,8.07
2019-01-16T20:29:03.427Z,7.50
2019-01-16T20:31:31.600Z,13.13
2019-01-16T20:33:53.655Z,7.80
2019-01-16T20:36:10.711Z,7.43
2019-01-16T20:38:29.232Z,8.17
2019-01-16T20:41:02.179Z,7.80
2019-01-16T20:43:24.118Z,7.43
2019-01-16T20:45:44.045Z,8.67
2019-01-16T20:48:17.903Z,8.27
2019-01-16T20:50:49.165Z,8.43
2019-01-16T20:53:17.555Z,9.07
2019-01-16T20:55:48.258Z,9.00
2019-01-16T20:58:10.891Z,9.03
2019-01-16T21:00:38.165Z,9.10
2019-01-16T21:03:04.668Z,9.40
2019-01-16T21:05:40.826Z,8.50
2019-01-16T21:08:02.638Z,9.27
2019-01-16T21:10:32.797Z,9.07
2019-01-16T21:13:14.460Z,9.47
2019-01-16T21:15:37.059Z,9.23
2019-01-16T21:18:13.321Z,8.13
2019-01-16T21:20:37.100Z,8.10
2019-01-16T21:22:49.711Z,8.13
2019-01-16T21:25:16.718Z,7.80
2019-01-16T21:27:39.074Z,8.53
2019-01-16T21:30:05.776Z,7.80
2019-01-16T21:32:26.083Z,8.23
2019-01-16T21:34:56.117Z,7.87
2019-01-16T21:37:17.822Z,8.53
2019-01-16T21:39:53.450Z,7.70
2019-01-16T21:42:23.149Z,7.80
2019-01-16T21:45:02.869Z,8.37
2019-01-16T21:47:24.939Z,9.07
2019-01-16T21:49:51.820Z,9.03
2019-01-16T21:52:18.384Z,8.10
2019-01-16T21:54:52.639Z,8.10
2019-01-16T21:57:18.234Z,8.03
2019-01-16T21:59:41.896Z,8.57
2019-01-16T22:02:05.374Z,8.43
2019-01-16T22:04:24.144Z,8.13
2019-01-16T22:06:42.266Z,8.80
2019-01-16T22:09:06.187Z,8.57
2019-01-16T22:11:25.154Z,9.23
2019-01-16T22:14:00.963Z,8.53
2019-01-16T22:16:17.288Z,8.13
2019-01-16T22:18:43.989Z,8.37
2019-01-16T22:20:55.746Z,8.10
2019-01-16T22:23:23.605Z,8.50
2019-01-16T22:25:46.108Z,8.73
2019-01-16T22:28:07.025Z,9.27
2019-01-16T22:30:52.560Z,8.43
2019-01-16T22:33:16.475Z,8.80
2019-01-16T22:35:37.909Z,8.17
2019-01-16T22:38:01.653Z,9.10
2019-01-16T22:40:34.953Z,8.57
2019-01-16T22:43:00.527Z,8.53
2019-01-16T22:45:14.694Z,8.37
2019-01-16T22:47:41.446Z,8.77
2019-01-16T22:50:10.947Z,9.03
2019-01-16T22:52:43.836Z,8.70
2019-01-16T22:55:10.471Z,8.70
2019-01-16T22:57:42.985Z,8.40
2019-01-16T23:00:09.443Z,9.90
2019-01-16T23:02:31.514Z,9.40
2019-01-16T23:04:58.096Z,9.20
2019-01-16T23:07:28.930Z,8.80
2019-01-16T23:09:52.942Z,9.50
2019-01-16T23:12:16.639Z,9.83
2019-01-16T23:14:55.343Z,9.93
2019-01-16T23:17:19.289Z,10.77
2019-01-16T23:19:35.020Z,10.03
2019-01-16T23:21:58.992Z,10.60
2019-01-16T23:24:20.502Z,10.57
2019-01-16T23:27:03.421Z,10.63
2019-01-16T23:29:16.817Z,10.30
2019-01-16T23:31:49.400Z,10.37
2019-01-16T23:34:25.369Z,10.07
2019-01-16T23:36:48.745Z,10.33
2019-01-16T23:39:11.049Z,9.70
2019-01-16T23:41:40.379Z,10.27
2019-01-16T23:44:03.726Z,9.20
2019-01-16T23:46:27.324Z,9.00
2019-01-16T23:48:53.977Z,10.43
2019-01-16T23:51:21.645Z,9.97
2019-01-16T23:53:56.159Z,10.07
2019-01-16T23:56:17.070Z,9.70
2019-01-16T23:58:49.779Z,10.33
